createdAt,value
2022-09-10T00:02:32.356Z,6.40
2022-09-10T00:05:59.479Z,5.90
2022-09-10T00:09:26.626Z,5.80
2022-09-10T00:12:55.723Z,5.40
2022-09-10T00:16:22.881Z,5.10
2022-09-10T00:19:49.692Z,4.80
2022-09-10T00:23:16.985Z,5.30
2022-09-10T00:26:43.909Z,5.00
2022-09-10T00:30:12.898Z,4.20
2022-09-10T00:33:39.806Z,4.10
2022-09-10T00:37:06.888Z,3.80
2022-09-10T00:40:33.950Z,3.80
2022-09-10T00:44:03.508Z,3.20
2022-09-10T00:47:34.006Z,3.60
2022-09-10T00:51:06.072Z,3.10
2022-09-10T00:54:35.813Z,2.90
2022-09-10T00:58:05.041Z,2.80
2022-09-10T01:01:33.737Z,3.10
2022-09-10T01:05:01.240Z,2.60
2022-09-10T01:08:28.479Z,2.50
2022-09-10T01:12:16.635Z,2.50
2022-09-10T01:15:52.971Z,2.20
2022-09-10T01:19:35.990Z,1.80
2022-09-10T01:23:27.381Z,1.50
2022-09-10T01:27:33.928Z,1.60
2022-09-10T01:31:11.491Z,1.80
2022-09-10T01:34:45.976Z,2.10
2022-09-10T01:38:16.577Z,3.00
2022-09-10T01:41:44.142Z,3.40
2022-09-10T01:45:15.246Z,4.00
2022-09-10T01:49:05.355Z,3.90
2022-09-10T01:52:42.496Z,4.00
2022-09-10T01:56:25.979Z,5.30
2022-09-10T02:00:03.656Z,4.70
2022-09-10T02:03:43.420Z,3.30
2022-09-10T02:07:13.773Z,2.50
2022-09-10T02:10:53.902Z,2.20
2022-09-10T02:14:22.803Z,2.10
2022-09-10T02:18:12.449Z,1.80
2022-09-10T02:21:40.120Z,2.00
2022-09-10T02:25:09.941Z,2.70
2022-09-10T02:28:38.914Z,2.20
2022-09-10T02:32:06.932Z,2.40
2022-09-10T02:35:34.106Z,2.40
2022-09-10T02:39:03.536Z,2.70
2022-09-10T02:42:30.705Z,3.90
2022-09-10T02:45:59.680Z,6.30
2022-09-10T02:49:28.416Z,3.80
2022-09-10T02:52:55.541Z,4.30
2022-09-10T02:56:23.162Z,3.80
2022-09-10T02:59:50.024Z,3.40
2022-09-10T03:03:17.391Z,3.10
2022-09-10T03:06:44.984Z,3.80
2022-09-10T03:10:12.452Z,3.40
2022-09-10T03:13:39.300Z,3.90
2022-09-10T03:17:06.971Z,3.40
2022-09-10T03:20:34.378Z,3.10
2022-09-10T03:24:02.592Z,3.10
2022-09-10T03:27:30.888Z,3.00
2022-09-10T03:30:57.755Z,3.30
2022-09-10T03:34:25.888Z,3.00
2022-09-10T03:37:53.047Z,3.50
2022-09-10T03:41:21.710Z,3.00
2022-09-10T03:44:48.405Z,3.10
2022-09-10T03:48:15.409Z,3.50
2022-09-10T03:51:42.802Z,3.50
2022-09-10T03:55:11.512Z,3.70
2022-09-10T03:58:39.431Z,3.00
2022-09-10T04:02:09.432Z,3.00
2022-09-10T04:09:46.996Z,4.00
2022-09-10T04:13:14.462Z,3.70
2022-09-10T04:16:43.023Z,3.50
2022-09-10T04:20:13.737Z,3.40
2022-09-10T04:23:41.264Z,3.20
2022-09-10T04:27:08.901Z,2.90
2022-09-10T04:30:35.613Z,3.60
2022-09-10T04:34:02.443Z,3.70
2022-09-10T04:37:32.209Z,4.20
2022-09-10T04:41:00.539Z,4.00
2022-09-10T04:44:29.511Z,4.00
2022-09-10T04:47:57.167Z,3.80
2022-09-10T04:51:24.296Z,4.40
2022-09-10T04:54:53.561Z,3.90
2022-09-10T04:58:21.308Z,4.20
2022-09-10T05:01:50.462Z,4.60
2022-09-10T05:05:17.949Z,3.60
2022-09-10T05:08:44.690Z,3.80
2022-09-10T05:12:11.619Z,3.50
2022-09-10T05:15:41.219Z,3.40
2022-09-10T05:19:08.658Z,3.40
2022-09-10T05:22:43.320Z,3.40
2022-09-10T05:26:11.131Z,3.30
2022-09-10T05:29:38.159Z,3.50
2022-09-10T05:33:06.506Z,2.60
2022-09-10T05:36:34.689Z,2.80
2022-09-10T05:40:03.200Z,2.80
2022-09-10T05:43:31.836Z,1.90
2022-09-10T05:46:59.982Z,1.60
2022-09-10T05:50:28.648Z,1.90
2022-09-10T05:53:55.837Z,1.60
2022-09-10T05:57:22.950Z,1.80
2022-09-10T06:00:54.927Z,1.70
2022-09-10T06:04:22.488Z,1.80
2022-09-10T06:07:49.868Z,1.40
2022-09-10T06:11:16.618Z,1.60
2022-09-10T06:14:47.142Z,1.60
2022-09-10T06:18:14.190Z,1.50
2022-09-10T06:21:41.151Z,1.50
2022-09-10T06:25:10.525Z,1.20
2022-09-10T06:28:38.120Z,1.60
2022-09-10T06:32:07.397Z,1.20
2022-09-10T06:35:34.371Z,1.10
2022-09-10T06:39:03.350Z,1.40
2022-09-10T06:42:35.964Z,1.50
2022-09-10T06:46:54.956Z,1.40
2022-09-10T06:50:12.756Z,3.30
2022-09-10T06:53:44.097Z,2.30
2022-09-10T06:57:13.983Z,1.90
2022-09-10T07:00:41.517Z,2.10
2022-09-10T07:04:09.298Z,2.10
2022-09-10T07:07:36.696Z,1.60
2022-09-10T07:11:08.099Z,1.30
2022-09-10T07:14:35.151Z,1.80
2022-09-10T07:18:06.158Z,1.40
2022-09-10T07:21:37.937Z,1.70
2022-09-10T07:25:09.506Z,2.60
2022-09-10T07:28:57.244Z,5.90
2022-09-10T07:32:25.528Z,4.90
2022-09-10T07:36:03.185Z,3.10
2022-09-10T07:39:31.441Z,3.40
2022-09-10T07:42:59.202Z,3.00
2022-09-10T07:46:28.499Z,2.40
2022-09-10T07:49:56.582Z,2.60
2022-09-10T07:53:23.484Z,2.10
2022-09-10T07:56:50.902Z,1.90
2022-09-10T08:00:18.497Z,2.00
2022-09-10T08:03:50.205Z,2.10
2022-09-10T08:07:17.905Z,1.50
2022-09-10T08:10:45.538Z,1.70
2022-09-10T08:14:13.335Z,1.30
2022-09-10T08:17:40.449Z,1.50
2022-09-10T08:21:09.305Z,3.90
2022-09-10T08:24:36.035Z,3.90
2022-09-10T08:28:02.968Z,2.70
2022-09-10T08:31:30.618Z,1.50
2022-09-10T08:35:23.410Z,1.20
2022-09-10T08:38:51.159Z,1.00
2022-09-10T08:42:26.935Z,1.30
2022-09-10T08:45:55.999Z,0.70
2022-09-10T08:49:31.590Z,0.90
2022-09-10T08:53:05.064Z,1.00
2022-09-10T08:56:34.013Z,1.20
2022-09-10T09:00:03.113Z,1.40
2022-09-10T09:03:37.560Z,1.20
2022-09-10T09:07:12.750Z,1.20
2022-09-10T09:10:47.660Z,1.50
2022-09-10T09:14:25.330Z,1.10
2022-09-10T09:18:08.806Z,1.30
2022-09-10T09:21:49.426Z,1.30
2022-09-10T09:25:25.228Z,1.50
2022-09-10T09:28:59.397Z,1.20
2022-09-10T09:32:27.415Z,1.30
2022-09-10T09:36:01.278Z,1.20
2022-09-10T09:39:34.691Z,1.00
2022-09-10T09:43:10.585Z,1.30
2022-09-10T09:46:38.755Z,1.00
2022-09-10T09:50:06.916Z,0.80
2022-09-10T09:53:34.297Z,1.20
2022-09-10T09:57:03.090Z,1.00
2022-09-10T10:00:38.336Z,0.90
2022-09-10T10:04:05.693Z,1.50
2022-09-10T10:07:34.378Z,0.80
2022-09-10T10:11:01.594Z,1.00
2022-09-10T10:14:42.590Z,0.80
2022-09-10T10:18:34.559Z,0.80
2022-09-10T10:22:22.659Z,0.70
2022-09-10T10:25:52.957Z,1.00
2022-09-10T10:29:22.261Z,0.90
2022-09-10T10:32:53.337Z,1.10
2022-09-10T10:36:26.319Z,0.70
2022-09-10T10:40:13.417Z,0.80
2022-09-10T10:43:52.816Z,1.10
2022-09-10T10:51:03.316Z,0.80
2022-09-10T10:54:44.119Z,0.90
2022-09-10T10:58:27.157Z,1.00
2022-09-10T11:01:58.645Z,0.70
2022-09-10T11:05:31.129Z,0.80
2022-09-10T11:09:02.828Z,0.80
2022-09-10T11:12:34.978Z,0.90
2022-09-10T11:16:07.499Z,0.90
2022-09-10T11:19:40.887Z,1.10
2022-09-10T11:23:14.817Z,0.90
2022-09-10T11:26:45.447Z,1.40
2022-09-10T11:30:16.985Z,1.40
2022-09-10T11:33:53.404Z,1.70
2022-09-10T11:37:28.312Z,1.10
2022-09-10T11:41:05.657Z,1.20
2022-09-10T11:44:45.313Z,0.90
2022-09-10T11:48:19.266Z,0.90
2022-09-10T11:51:48.060Z,1.00
2022-09-10T11:55:18.363Z,0.90
2022-09-10T11:58:53.833Z,0.90
2022-09-10T12:02:57.354Z,0.80
2022-09-10T12:06:35.060Z,0.80
2022-09-10T12:10:14.223Z,0.80
2022-09-10T12:13:42.349Z,0.90
2022-09-10T12:17:15.931Z,1.00
2022-09-10T12:20:50.541Z,0.80
2022-09-10T12:24:32.242Z,1.00
2022-09-10T12:28:00.367Z,0.90
2022-09-10T12:31:27.866Z,0.90
2022-09-10T12:35:47.951Z,0.80
2022-09-10T12:39:25.829Z,1.30
2022-09-10T12:42:52.690Z,1.10
2022-09-10T12:46:25.708Z,1.00
2022-09-10T12:49:55.830Z,1.30
2022-09-10T12:53:55.409Z,0.80
2022-09-10T12:57:40.410Z,1.20
2022-09-10T13:01:17.991Z,0.70
2022-09-10T13:04:47.472Z,0.90
2022-09-10T13:08:19.656Z,0.90
2022-09-10T13:11:50.588Z,0.90
2022-09-10T13:15:24.107Z,1.00
2022-09-10T13:18:56.376Z,0.90
2022-09-10T13:23:02.356Z,0.80
2022-09-10T13:26:52.403Z,0.80
2022-09-10T13:30:21.596Z,1.00
2022-09-10T13:34:15.997Z,1.00
2022-09-10T13:38:10.050Z,1.60
2022-09-10T13:42:12.784Z,1.00
2022-09-10T13:45:43.047Z,0.90
2022-09-10T13:49:16.890Z,0.80
2022-09-10T13:52:48.308Z,0.80
2022-09-10T13:56:22.421Z,0.90
2022-09-10T13:59:53.090Z,0.90
2022-09-10T14:03:25.275Z,1.00
2022-09-10T14:06:52.491Z,1.00
2022-09-10T14:10:20.226Z,1.00
2022-09-10T14:13:55.770Z,1.40
2022-09-10T14:17:27.382Z,0.90
2022-09-10T14:20:54.465Z,1.00
2022-09-10T14:24:34.246Z,0.80
2022-09-10T14:31:55.007Z,0.90
2022-09-10T14:35:40.753Z,0.70
2022-09-10T14:39:17.053Z,0.90
2022-09-10T14:42:44.592Z,1.10
2022-09-10T14:46:14.601Z,1.00
2022-09-10T14:49:44.538Z,0.90
2022-09-10T14:53:11.179Z,1.00
2022-09-10T14:56:40.816Z,0.60
2022-09-10T15:00:11.574Z,1.00
2022-09-10T15:03:40.777Z,0.90
2022-09-10T15:07:07.753Z,1.20
2022-09-10T15:10:34.803Z,0.90
2022-09-10T15:14:01.583Z,1.20
2022-09-10T15:17:28.821Z,1.20
2022-09-10T15:20:55.570Z,0.70
2022-09-10T15:24:23.959Z,1.00
2022-09-10T15:27:50.497Z,1.10
2022-09-10T15:31:18.387Z,1.10
2022-09-10T15:34:45.514Z,1.20
2022-09-10T15:38:14.029Z,1.20
2022-09-10T15:41:45.277Z,1.10
2022-09-10T15:45:13.299Z,2.00
2022-09-10T15:48:40.827Z,1.50
2022-09-10T15:52:07.951Z,1.10
2022-09-10T15:55:34.656Z,1.20
2022-09-10T15:59:02.020Z,1.20
2022-09-10T16:02:29.281Z,1.60
2022-09-10T16:05:59.791Z,1.80
2022-09-10T16:09:26.601Z,1.60
2022-09-10T16:12:54.002Z,1.50
2022-09-10T16:16:22.864Z,1.30
2022-09-10T16:19:53.319Z,1.40
2022-09-10T16:23:19.849Z,1.20
2022-09-10T16:26:48.198Z,1.40
2022-09-10T16:30:15.825Z,1.40
2022-09-10T16:33:43.049Z,1.40
2022-09-10T16:37:10.077Z,1.90
2022-09-10T16:40:36.772Z,2.30
2022-09-10T16:44:04.311Z,2.20
2022-09-10T16:47:30.993Z,2.80
2022-09-10T16:51:03.952Z,2.50
2022-09-10T16:54:32.039Z,2.60
2022-09-10T16:57:59.143Z,3.40
2022-09-10T17:01:25.973Z,3.10
2022-09-10T17:04:55.460Z,3.90
2022-09-10T17:08:22.923Z,3.20
2022-09-10T17:11:49.702Z,3.50
2022-09-10T17:15:17.161Z,4.00
2022-09-10T17:18:44.207Z,4.20
2022-09-10T17:22:11.426Z,3.90
2022-09-10T17:25:38.497Z,4.40
2022-09-10T17:29:07.514Z,4.60
2022-09-10T17:32:34.701Z,4.50
2022-09-10T17:36:03.832Z,4.20
2022-09-10T17:39:30.612Z,4.20
2022-09-10T17:42:57.359Z,4.10
2022-09-10T17:46:24.255Z,4.10
2022-09-10T17:49:52.153Z,4.80
2022-09-10T17:53:19.632Z,4.40
2022-09-10T17:56:46.397Z,4.30
2022-09-10T18:00:15.355Z,5.40
2022-09-10T18:03:42.914Z,5.50
2022-09-10T18:07:10.558Z,5.40
2022-09-10T18:10:37.955Z,5.80
2022-09-10T18:14:04.629Z,6.40
2022-09-10T18:17:31.602Z,6.20
2022-09-10T18:20:58.294Z,6.20
2022-09-10T18:24:25.665Z,6.20
2022-09-10T18:27:52.635Z,6.90
2022-09-10T18:31:19.743Z,6.40
2022-09-10T18:34:46.858Z,6.60
2022-09-10T18:38:13.660Z,7.50
2022-09-10T18:41:42.895Z,7.90
2022-09-10T18:45:12.223Z,8.50
2022-09-10T18:48:39.058Z,8.90
2022-09-10T18:52:06.368Z,8.80
2022-09-10T18:55:33.191Z,9.80
2022-09-10T18:59:03.134Z,9.50
2022-09-10T19:02:29.927Z,9.90
2022-09-10T19:05:57.714Z,10.40
2022-09-10T19:09:26.564Z,11.50
2022-09-10T19:12:53.533Z,9.50
2022-09-10T19:16:21.392Z,11.00
2022-09-10T19:19:49.942Z,10.30
2022-09-10T19:23:19.862Z,10.50
2022-09-10T19:26:48.057Z,10.60
2022-09-10T19:30:16.039Z,12.10
2022-09-10T19:33:43.367Z,12.00
2022-09-10T19:37:11.364Z,12.80
2022-09-10T19:40:38.433Z,12.20
2022-09-10T19:44:06.945Z,14.20
2022-09-10T19:47:33.686Z,14.20
2022-09-10T19:51:01.180Z,14.40
2022-09-10T19:54:30.801Z,14.40
2022-09-10T20:01:26.558Z,13.50
2022-09-10T20:04:53.671Z,15.30
2022-09-10T20:08:20.353Z,13.90
2022-09-10T20:11:47.040Z,14.00
2022-09-10T20:15:14.246Z,15.70
2022-09-10T20:18:41.539Z,14.80
2022-09-10T20:22:08.466Z,14.20
2022-09-10T20:25:38.496Z,15.40
2022-09-10T20:29:08.365Z,16.20
2022-09-10T20:32:35.253Z,14.80
2022-09-10T20:36:03.868Z,15.50
2022-09-10T20:39:31.856Z,15.80
2022-09-10T20:42:58.573Z,14.50
2022-09-10T20:46:26.280Z,15.40
2022-09-10T20:49:52.979Z,14.60
2022-09-10T20:53:19.769Z,14.80
2022-09-10T20:56:47.511Z,17.50
2022-09-10T21:00:17.006Z,18.20
2022-09-10T21:03:44.283Z,18.50
2022-09-10T21:07:11.297Z,18.20
2022-09-10T21:10:39.177Z,17.50
2022-09-10T21:14:09.540Z,17.70
2022-09-10T21:17:36.503Z,17.90
2022-09-10T21:21:10.366Z,17.60
2022-09-10T21:24:39.534Z,16.80
2022-09-10T21:28:06.875Z,19.00
2022-09-10T21:31:36.491Z,18.00
2022-09-10T21:35:03.843Z,18.30
2022-09-10T21:38:31.197Z,17.00
2022-09-10T21:41:59.925Z,19.60
2022-09-10T21:45:28.210Z,18.40
2022-09-10T21:48:55.412Z,19.50
2022-09-10T21:52:22.965Z,18.50
2022-09-10T21:55:49.846Z,17.90
2022-09-10T21:59:17.447Z,18.50
2022-09-10T22:02:44.383Z,18.60
2022-09-10T22:06:13.737Z,17.80
2022-09-10T22:09:40.362Z,18.10
2022-09-10T22:13:07.518Z,18.50
2022-09-10T22:16:36.070Z,17.60
2022-09-10T22:20:03.427Z,18.60
2022-09-10T22:23:33.378Z,18.10
2022-09-10T22:30:27.886Z,17.40
2022-09-10T22:33:57.139Z,18.10
2022-09-10T22:37:23.852Z,18.90
2022-09-10T22:40:51.520Z,20.50
2022-09-10T22:44:20.227Z,20.00
2022-09-10T22:47:47.125Z,18.70
2022-09-10T22:51:15.592Z,18.40
2022-09-10T22:54:42.534Z,20.10
2022-09-10T22:58:10.235Z,19.20
2022-09-10T23:01:39.216Z,19.00
2022-09-10T23:05:06.776Z,20.00
2022-09-10T23:08:33.523Z,20.20
2022-09-10T23:12:01.421Z,18.60
2022-09-10T23:15:30.810Z,20.80
2022-09-10T23:19:00.390Z,19.50
2022-09-10T23:22:27.208Z,19.80
2022-09-10T23:25:54.350Z,21.00
2022-09-10T23:29:23.372Z,21.10
2022-09-10T23:36:17.093Z,18.20
2022-09-10T23:39:43.845Z,18.70
2022-09-10T23:43:10.541Z,19.30
2022-09-10T23:46:37.874Z,18.80
2022-09-10T23:50:06.155Z,19.50
2022-09-10T23:53:33.145Z,20.20
2022-09-10T23:57:00.159Z,20.50
